sensor_id;sensor_type;location;lat;lon;timestamp;temperature;humidity
35457;DHT22;21575;51.538;-0.084;2022-10-16T00:00:45;13.10;99.90
35457;DHT22;21575;51.538;-0.084;2022-10-16T00:03:11;13.10;99.90
35457;DHT22;21575;51.538;-0.084;2022-10-16T00:05:41;13.10;99.90
35457;DHT22;21575;51.538;-0.084;2022-10-16T00:08:08;13.10;99.90
35457;DHT22;21575;51.538;-0.084;2022-10-16T00:10:35;13.10;99.90
35457;DHT22;21575;51.538;-0.084;2022-10-16T00:13:00;13.10;99.90
35457;DHT22;21575;51.538;-0.084;2022-10-16T00:15:26;13.00;99.90
35457;DHT22;21575;51.538;-0.084;2022-10-16T00:17:52;13.10;99.90
35457;DHT22;21575;51.538;-0.084;2022-10-16T00:20:17;13.10;99.90
35457;DHT22;21575;51.538;-0.084;2022-10-16T00:22:43;13.00;99.90
35457;DHT22;21575;51.538;-0.084;2022-10-16T00:25:09;13.00;99.90
35457;DHT22;21575;51.538;-0.084;2022-10-16T00:27:34;13.10;99.90
35457;DHT22;21575;51.538;-0.084;2022-10-16T00:30:00;13.10;99.90
35457;DHT22;21575;51.538;-0.084;2022-10-16T00:32:26;13.00;99.90
35457;DHT22;21575;51.538;-0.084;2022-10-16T00:34:51;13.00;99.90
35457;DHT22;21575;51.538;-0.084;2022-10-16T00:37:20;13.00;99.90
35457;DHT22;21575;51.538;-0.084;2022-10-16T00:39:46;13.00;99.90
35457;DHT22;21575;51.538;-0.084;2022-10-16T00:42:16;12.90;99.90
35457;DHT22;21575;51.538;-0.084;2022-10-16T00:44:54;12.90;99.90
35457;DHT22;21575;51.538;-0.084;2022-10-16T00:47:29;13.00;99.90
35457;DHT22;21575;51.538;-0.084;2022-10-16T00:50:07;12.90;99.90
35457;DHT22;21575;51.538;-0.084;2022-10-16T00:52:33;12.80;99.90
35457;DHT22;21575;51.538;-0.084;2022-10-16T00:55:00;12.80;99.90
35457;DHT22;21575;51.538;-0.084;2022-10-16T00:57:27;12.80;99.90
35457;DHT22;21575;51.538;-0.084;2022-10-16T00:59:53;12.80;99.90
35457;DHT22;21575;51.538;-0.084;2022-10-16T01:02:19;12.70;99.90
35457;DHT22;21575;51.538;-0.084;2022-10-16T01:04:48;12.70;99.90
35457;DHT22;21575;51.538;-0.084;2022-10-16T01:07:32;12.70;99.90
35457;DHT22;21575;51.538;-0.084;2022-10-16T01:10:11;12.70;99.90
35457;DHT22;21575;51.538;-0.084;2022-10-16T01:13:06;12.70;99.90
35457;DHT22;21575;51.538;-0.084;2022-10-16T01:15:48;12.70;99.90
35457;DHT22;21575;51.538;-0.084;2022-10-16T01:18:39;12.70;99.90
35457;DHT22;21575;51.538;-0.084;2022-10-16T01:21:18;12.70;99.90
35457;DHT22;21575;51.538;-0.084;2022-10-16T01:29:24;12.70;99.90
35457;DHT22;21575;51.538;-0.084;2022-10-16T01:31:59;12.80;99.90
35457;DHT22;21575;51.538;-0.084;2022-10-16T01:34:38;12.80;99.90
35457;DHT22;21575;51.538;-0.084;2022-10-16T01:37:15;12.70;99.90
35457;DHT22;21575;51.538;-0.084;2022-10-16T01:39:44;12.70;99.90
35457;DHT22;21575;51.538;-0.084;2022-10-16T01:42:24;12.80;99.90
35457;DHT22;21575;51.538;-0.084;2022-10-16T01:44:53;12.70;99.90
35457;DHT22;21575;51.538;-0.084;2022-10-16T01:47:22;12.70;99.90
35457;DHT22;21575;51.538;-0.084;2022-10-16T01:49:49;12.70;99.90
35457;DHT22;21575;51.538;-0.084;2022-10-16T01:52:18;12.70;99.90
35457;DHT22;21575;51.538;-0.084;2022-10-16T01:54:47;12.70;99.90
35457;DHT22;21575;51.538;-0.084;2022-10-16T01:57:15;12.70;99.90
35457;DHT22;21575;51.538;-0.084;2022-10-16T01:59:48;12.80;99.90
35457;DHT22;21575;51.538;-0.084;2022-10-16T02:02:17;12.80;99.90
35457;DHT22;21575;51.538;-0.084;2022-10-16T02:04:50;12.80;99.90
35457;DHT22;21575;51.538;-0.084;2022-10-16T02:07:17;12.80;99.90
35457;DHT22;21575;51.538;-0.084;2022-10-16T02:09:43;12.80;99.90
35457;DHT22;21575;51.538;-0.084;2022-10-16T02:12:32;12.80;99.90
35457;DHT22;21575;51.538;-0.084;2022-10-16T02:14:59;12.90;99.90
35457;DHT22;21575;51.538;-0.084;2022-10-16T02:17:26;12.80;99.90
35457;DHT22;21575;51.538;-0.084;2022-10-16T02:19:54;12.90;99.90
35457;DHT22;21575;51.538;-0.084;2022-10-16T02:22:36;12.90;99.90
35457;DHT22;21575;51.538;-0.084;2022-10-16T02:25:10;12.90;99.90
35457;DHT22;21575;51.538;-0.084;2022-10-16T02:27:53;12.80;99.90
35457;DHT22;21575;51.538;-0.084;2022-10-16T02:30:21;12.80;99.90
35457;DHT22;21575;51.538;-0.084;2022-10-16T02:32:49;12.70;99.90
35457;DHT22;21575;51.538;-0.084;2022-10-16T02:35:17;12.70;99.90
35457;DHT22;21575;51.538;-0.084;2022-10-16T02:37:44;12.70;99.90
35457;DHT22;21575;51.538;-0.084;2022-10-16T02:40:11;12.60;99.90
35457;DHT22;21575;51.538;-0.084;2022-10-16T02:42:39;12.60;99.90
35457;DHT22;21575;51.538;-0.084;2022-10-16T02:45:07;12.60;99.90
35457;DHT22;21575;51.538;-0.084;2022-10-16T02:47:33;12.60;99.90
35457;DHT22;21575;51.538;-0.084;2022-10-16T02:49:59;12.60;99.90
35457;DHT22;21575;51.538;-0.084;2022-10-16T02:52:24;12.50;99.90
35457;DHT22;21575;51.538;-0.084;2022-10-16T02:54:50;12.60;99.90
35457;DHT22;21575;51.538;-0.084;2022-10-16T02:57:16;12.50;99.90
35457;DHT22;21575;51.538;-0.084;2022-10-16T02:59:41;12.50;99.90
35457;DHT22;21575;51.538;-0.084;2022-10-16T03:02:07;12.50;99.90
35457;DHT22;21575;51.538;-0.084;2022-10-16T03:04:33;12.50;99.90
35457;DHT22;21575;51.538;-0.084;2022-10-16T03:06:58;12.50;99.90
35457;DHT22;21575;51.538;-0.084;2022-10-16T03:09:24;12.50;99.90
35457;DHT22;21575;51.538;-0.084;2022-10-16T03:11:50;12.50;99.90
35457;DHT22;21575;51.538;-0.084;2022-10-16T03:14:15;12.50;99.90
35457;DHT22;21575;51.538;-0.084;2022-10-16T03:16:41;12.50;99.90
35457;DHT22;21575;51.538;-0.084;2022-10-16T03:19:07;12.50;99.90
35457;DHT22;21575;51.538;-0.084;2022-10-16T03:21:32;12.40;99.90
35457;DHT22;21575;51.538;-0.084;2022-10-16T03:23:58;12.40;99.90
35457;DHT22;21575;51.538;-0.084;2022-10-16T03:26:24;12.40;99.90
35457;DHT22;21575;51.538;-0.084;2022-10-16T03:28:49;12.40;99.90
35457;DHT22;21575;51.538;-0.084;2022-10-16T03:31:15;12.30;99.90
35457;DHT22;21575;51.538;-0.084;2022-10-16T03:33:41;12.30;99.90
35457;DHT22;21575;51.538;-0.084;2022-10-16T03:36:06;12.30;99.90
35457;DHT22;21575;51.538;-0.084;2022-10-16T03:38:32;12.30;99.90
35457;DHT22;21575;51.538;-0.084;2022-10-16T03:40:58;12.30;99.90
35457;DHT22;21575;51.538;-0.084;2022-10-16T03:43:23;12.30;99.90
35457;DHT22;21575;51.538;-0.084;2022-10-16T03:45:50;12.30;99.90
35457;DHT22;21575;51.538;-0.084;2022-10-16T03:48:17;12.20;99.90
35457;DHT22;21575;51.538;-0.084;2022-10-16T03:50:42;12.20;99.90
35457;DHT22;21575;51.538;-0.084;2022-10-16T03:53:08;12.20;99.90
35457;DHT22;21575;51.538;-0.084;2022-10-16T03:55:34;12.20;99.90
35457;DHT22;21575;51.538;-0.084;2022-10-16T03:58:00;12.20;99.90
35457;DHT22;21575;51.538;-0.084;2022-10-16T04:00:26;12.20;99.90
35457;DHT22;21575;51.538;-0.084;2022-10-16T04:02:52;12.20;99.90
35457;DHT22;21575;51.538;-0.084;2022-10-16T04:05:17;12.20;99.90
35457;DHT22;21575;51.538;-0.084;2022-10-16T04:07:43;12.20;99.90
35457;DHT22;21575;51.538;-0.084;2022-10-16T04:10:09;12.20;99.90
35457;DHT22;21575;51.538;-0.084;2022-10-16T04:12:35;12.10;99.90
35457;DHT22;21575;51.538;-0.084;2022-10-16T04:15:01;12.10;99.90
35457;DHT22;21575;51.538;-0.084;2022-10-16T04:17:26;12.20;99.90
35457;DHT22;21575;51.538;-0.084;2022-10-16T04:19:52;12.20;99.90
35457;DHT22;21575;51.538;-0.084;2022-10-16T04:22:18;12.10;99.90
35457;DHT22;21575;51.538;-0.084;2022-10-16T04:24:43;12.10;99.90
35457;DHT22;21575;51.538;-0.084;2022-10-16T04:27:09;12.10;99.90
35457;DHT22;21575;51.538;-0.084;2022-10-16T04:29:35;12.10;99.90
35457;DHT22;21575;51.538;-0.084;2022-10-16T04:32:00;12.10;99.90
35457;DHT22;21575;51.538;-0.084;2022-10-16T04:34:26;12.00;99.90
35457;DHT22;21575;51.538;-0.084;2022-10-16T04:36:51;12.00;99.90
35457;DHT22;21575;51.538;-0.084;2022-10-16T04:39:18;12.00;99.90
35457;DHT22;21575;51.538;-0.084;2022-10-16T04:41:44;12.00;99.90
35457;DHT22;21575;51.538;-0.084;2022-10-16T04:44:09;12.00;99.90
35457;DHT22;21575;51.538;-0.084;2022-10-16T04:46:35;11.90;99.90
35457;DHT22;21575;51.538;-0.084;2022-10-16T04:49:00;11.90;99.90
35457;DHT22;21575;51.538;-0.084;2022-10-16T04:51:26;11.90;99.90
35457;DHT22;21575;51.538;-0.084;2022-10-16T04:53:53;11.90;99.90
35457;DHT22;21575;51.538;-0.084;2022-10-16T04:56:20;11.90;99.90
35457;DHT22;21575;51.538;-0.084;2022-10-16T04:58:46;11.80;99.90
35457;DHT22;21575;51.538;-0.084;2022-10-16T05:01:12;11.80;99.90
35457;DHT22;21575;51.538;-0.084;2022-10-16T05:03:38;11.80;99.90
35457;DHT22;21575;51.538;-0.084;2022-10-16T05:06:05;11.80;99.90
35457;DHT22;21575;51.538;-0.084;2022-10-16T05:08:31;11.80;99.90
35457;DHT22;21575;51.538;-0.084;2022-10-16T05:10:56;11.80;99.90
35457;DHT22;21575;51.538;-0.084;2022-10-16T05:13:22;11.80;99.90
35457;DHT22;21575;51.538;-0.084;2022-10-16T05:15:48;11.80;99.90
35457;DHT22;21575;51.538;-0.084;2022-10-16T05:18:15;11.80;99.90
35457;DHT22;21575;51.538;-0.084;2022-10-16T05:20:41;11.80;99.90
35457;DHT22;21575;51.538;-0.084;2022-10-16T05:23:07;11.80;99.90
35457;DHT22;21575;51.538;-0.084;2022-10-16T05:25:35;11.70;99.90
35457;DHT22;21575;51.538;-0.084;2022-10-16T05:28:01;11.70;99.90
35457;DHT22;21575;51.538;-0.084;2022-10-16T05:30:27;11.70;99.90
35457;DHT22;21575;51.538;-0.084;2022-10-16T05:32:52;11.80;99.90
35457;DHT22;21575;51.538;-0.084;2022-10-16T05:35:19;11.80;99.90
35457;DHT22;21575;51.538;-0.084;2022-10-16T05:37:45;11.80;99.90
35457;DHT22;21575;51.538;-0.084;2022-10-16T05:40:11;11.80;99.90
35457;DHT22;21575;51.538;-0.084;2022-10-16T05:42:38;11.80;99.90
35457;DHT22;21575;51.538;-0.084;2022-10-16T05:45:05;11.80;99.90
35457;DHT22;21575;51.538;-0.084;2022-10-16T05:47:31;11.80;99.90
35457;DHT22;21575;51.538;-0.084;2022-10-16T05:49:57;11.80;99.90
35457;DHT22;21575;51.538;-0.084;2022-10-16T05:52:22;11.80;99.90
35457;DHT22;21575;51.538;-0.084;2022-10-16T05:54:48;11.80;99.90
35457;DHT22;21575;51.538;-0.084;2022-10-16T05:57:14;11.80;99.90
35457;DHT22;21575;51.538;-0.084;2022-10-16T05:59:39;11.80;99.90
35457;DHT22;21575;51.538;-0.084;2022-10-16T06:02:05;11.70;99.90
35457;DHT22;21575;51.538;-0.084;2022-10-16T06:04:31;11.70;99.90
35457;DHT22;21575;51.538;-0.084;2022-10-16T06:06:59;11.70;99.90
35457;DHT22;21575;51.538;-0.084;2022-10-16T06:09:28;11.70;99.90
35457;DHT22;21575;51.538;-0.084;2022-10-16T06:11:53;11.70;99.90
35457;DHT22;21575;51.538;-0.084;2022-10-16T06:14:19;11.70;99.90
35457;DHT22;21575;51.538;-0.084;2022-10-16T06:16:44;11.70;99.90
35457;DHT22;21575;51.538;-0.084;2022-10-16T06:19:10;11.70;99.90
35457;DHT22;21575;51.538;-0.084;2022-10-16T06:21:36;11.70;99.90
35457;DHT22;21575;51.538;-0.084;2022-10-16T06:24:01;11.60;99.90
35457;DHT22;21575;51.538;-0.084;2022-10-16T06:26:29;11.70;99.90
35457;DHT22;21575;51.538;-0.084;2022-10-16T06:28:56;11.60;99.90
35457;DHT22;21575;51.538;-0.084;2022-10-16T06:31:23;11.60;99.90
35457;DHT22;21575;51.538;-0.084;2022-10-16T06:33:53;11.60;99.90
35457;DHT22;21575;51.538;-0.084;2022-10-16T06:36:19;11.70;99.90
35457;DHT22;21575;51.538;-0.084;2022-10-16T06:38:45;11.60;99.90
35457;DHT22;21575;51.538;-0.084;2022-10-16T06:41:13;11.60;99.90
35457;DHT22;21575;51.538;-0.084;2022-10-16T06:43:39;11.60;99.90
35457;DHT22;21575;51.538;-0.084;2022-10-16T06:46:06;11.60;99.90
35457;DHT22;21575;51.538;-0.084;2022-10-16T06:48:36;11.60;99.90
35457;DHT22;21575;51.538;-0.084;2022-10-16T06:51:10;11.60;99.90
35457;DHT22;21575;51.538;-0.084;2022-10-16T06:53:39;11.60;99.90
35457;DHT22;21575;51.538;-0.084;2022-10-16T06:56:34;11.60;99.90
35457;DHT22;21575;51.538;-0.084;2022-10-16T06:59:00;11.60;99.90
35457;DHT22;21575;51.538;-0.084;2022-10-16T07:01:27;11.60;99.90
35457;DHT22;21575;51.538;-0.084;2022-10-16T07:03:53;11.60;99.90
35457;DHT22;21575;51.538;-0.084;2022-10-16T07:06:23;11.60;99.90
35457;DHT22;21575;51.538;-0.084;2022-10-16T07:08:50;11.60;99.90
35457;DHT22;21575;51.538;-0.084;2022-10-16T07:11:18;11.70;99.90
35457;DHT22;21575;51.538;-0.084;2022-10-16T07:13:46;11.70;99.90
35457;DHT22;21575;51.538;-0.084;2022-10-16T07:16:15;11.70;99.90
35457;DHT22;21575;51.538;-0.084;2022-10-16T07:18:41;11.70;99.90
35457;DHT22;21575;51.538;-0.084;2022-10-16T07:21:11;11.70;99.90
35457;DHT22;21575;51.538;-0.084;2022-10-16T07:23:37;11.70;99.90
35457;DHT22;21575;51.538;-0.084;2022-10-16T07:26:03;11.80;99.90
35457;DHT22;21575;51.538;-0.084;2022-10-16T07:28:29;11.80;99.90
35457;DHT22;21575;51.538;-0.084;2022-10-16T07:30:55;11.90;99.90
35457;DHT22;21575;51.538;-0.084;2022-10-16T07:33:21;11.90;99.90
35457;DHT22;21575;51.538;-0.084;2022-10-16T07:35:53;12.00;99.90
35457;DHT22;21575;51.538;-0.084;2022-10-16T07:38:20;12.00;99.90
35457;DHT22;21575;51.538;-0.084;2022-10-16T07:40:46;12.10;99.90
35457;DHT22;21575;51.538;-0.084;2022-10-16T07:43:12;12.10;99.90
35457;DHT22;21575;51.538;-0.084;2022-10-16T07:45:45;12.10;99.90
35457;DHT22;21575;51.538;-0.084;2022-10-16T07:48:11;12.20;99.90
35457;DHT22;21575;51.538;-0.084;2022-10-16T07:50:37;12.20;99.90
35457;DHT22;21575;51.538;-0.084;2022-10-16T07:53:03;12.30;99.90
35457;DHT22;21575;51.538;-0.084;2022-10-16T07:55:29;12.30;99.90
35457;DHT22;21575;51.538;-0.084;2022-10-16T07:57:54;12.40;99.90
35457;DHT22;21575;51.538;-0.084;2022-10-16T08:00:20;12.50;99.90
35457;DHT22;21575;51.538;-0.084;2022-10-16T08:02:46;12.60;99.90
35457;DHT22;21575;51.538;-0.084;2022-10-16T08:05:12;12.60;99.90
35457;DHT22;21575;51.538;-0.084;2022-10-16T08:07:37;12.70;99.90
35457;DHT22;21575;51.538;-0.084;2022-10-16T08:10:03;12.70;99.90
35457;DHT22;21575;51.538;-0.084;2022-10-16T08:12:29;12.80;99.90
35457;DHT22;21575;51.538;-0.084;2022-10-16T08:14:55;12.90;99.90
35457;DHT22;21575;51.538;-0.084;2022-10-16T08:17:20;12.90;99.90
35457;DHT22;21575;51.538;-0.084;2022-10-16T08:19:46;12.90;99.90
35457;DHT22;21575;51.538;-0.084;2022-10-16T08:22:15;13.00;99.90
35457;DHT22;21575;51.538;-0.084;2022-10-16T08:24:41;13.10;99.90
35457;DHT22;21575;51.538;-0.084;2022-10-16T08:27:07;13.10;99.90
35457;DHT22;21575;51.538;-0.084;2022-10-16T08:29:34;13.20;99.90
35457;DHT22;21575;51.538;-0.084;2022-10-16T08:32:00;13.30;99.90
35457;DHT22;21575;51.538;-0.084;2022-10-16T08:34:25;13.40;99.90
35457;DHT22;21575;51.538;-0.084;2022-10-16T08:36:53;13.40;99.90
35457;DHT22;21575;51.538;-0.084;2022-10-16T08:39:20;13.50;99.90
35457;DHT22;21575;51.538;-0.084;2022-10-16T08:47:21;13.70;99.90
35457;DHT22;21575;51.538;-0.084;2022-10-16T08:49:59;13.80;99.90
35457;DHT22;21575;51.538;-0.084;2022-10-16T08:52:30;13.90;99.90
35457;DHT22;21575;51.538;-0.084;2022-10-16T08:54:58;14.00;99.90
35457;DHT22;21575;51.538;-0.084;2022-10-16T08:57:25;14.00;99.90
35457;DHT22;21575;51.538;-0.084;2022-10-16T08:59:57;14.10;99.90
35457;DHT22;21575;51.538;-0.084;2022-10-16T09:02:40;14.10;99.90
35457;DHT22;21575;51.538;-0.084;2022-10-16T09:05:23;14.20;99.90
35457;DHT22;21575;51.538;-0.084;2022-10-16T09:08:03;14.20;99.90
35457;DHT22;21575;51.538;-0.084;2022-10-16T09:10:41;14.30;99.90
35457;DHT22;21575;51.538;-0.084;2022-10-16T09:13:23;14.30;99.90
35457;DHT22;21575;51.538;-0.084;2022-10-16T09:16:19;14.30;99.90
35457;DHT22;21575;51.538;-0.084;2022-10-16T09:19:21;14.40;99.90
35457;DHT22;21575;51.538;-0.084;2022-10-16T09:21:48;14.50;99.90
35457;DHT22;21575;51.538;-0.084;2022-10-16T09:24:19;14.50;99.90
35457;DHT22;21575;51.538;-0.084;2022-10-16T09:26:46;14.60;99.90
35457;DHT22;21575;51.538;-0.084;2022-10-16T09:29:13;14.60;99.90
35457;DHT22;21575;51.538;-0.084;2022-10-16T09:31:39;14.70;99.90
35457;DHT22;21575;51.538;-0.084;2022-10-16T09:34:08;14.70;99.90
35457;DHT22;21575;51.538;-0.084;2022-10-16T09:36:40;14.70;99.90
35457;DHT22;21575;51.538;-0.084;2022-10-16T09:39:09;14.70;99.90
35457;DHT22;21575;51.538;-0.084;2022-10-16T09:41:39;14.70;99.90
35457;DHT22;21575;51.538;-0.084;2022-10-16T09:44:22;14.80;99.90
35457;DHT22;21575;51.538;-0.084;2022-10-16T09:46:49;14.80;99.90
35457;DHT22;21575;51.538;-0.084;2022-10-16T09:49:23;14.90;99.90
35457;DHT22;21575;51.538;-0.084;2022-10-16T09:51:50;14.90;99.90
35457;DHT22;21575;51.538;-0.084;2022-10-16T09:54:18;15.00;99.90
35457;DHT22;21575;51.538;-0.084;2022-10-16T09:56:44;15.00;99.90
35457;DHT22;21575;51.538;-0.084;2022-10-16T09:59:21;15.10;99.90
35457;DHT22;21575;51.538;-0.084;2022-10-16T10:01:53;15.10;99.90
35457;DHT22;21575;51.538;-0.084;2022-10-16T10:04:24;15.00;99.90
35457;DHT22;21575;51.538;-0.084;2022-10-16T10:06:55;15.00;99.90
35457;DHT22;21575;51.538;-0.084;2022-10-16T10:09:42;15.10;99.90
35457;DHT22;21575;51.538;-0.084;2022-10-16T10:12:21;15.10;99.90
35457;DHT22;21575;51.538;-0.084;2022-10-16T10:14:52;15.10;99.90
35457;DHT22;21575;51.538;-0.084;2022-10-16T10:17:20;15.10;99.90
35457;DHT22;21575;51.538;-0.084;2022-10-16T10:30:39;15.40;99.90
35457;DHT22;21575;51.538;-0.084;2022-10-16T10:43:49;15.50;99.90
35457;DHT22;21575;51.538;-0.084;2022-10-16T10:46:31;15.50;99.90
35457;DHT22;21575;51.538;-0.084;2022-10-16T10:51:42;15.60;99.90
35457;DHT22;21575;51.538;-0.084;2022-10-16T10:54:24;15.60;99.90
35457;DHT22;21575;51.538;-0.084;2022-10-16T10:56:56;15.70;99.90
35457;DHT22;21575;51.538;-0.084;2022-10-16T11:00:01;15.80;99.90
35457;DHT22;21575;51.538;-0.084;2022-10-16T11:02:40;15.80;99.90
35457;DHT22;21575;51.538;-0.084;2022-10-16T11:08:29;15.90;99.90
35457;DHT22;21575;51.538;-0.084;2022-10-16T11:16:27;16.00;99.90
35457;DHT22;21575;51.538;-0.084;2022-10-16T11:21:44;16.00;99.90
35457;DHT22;21575;51.538;-0.084;2022-10-16T11:27:09;16.10;99.90
35457;DHT22;21575;51.538;-0.084;2022-10-16T11:30:16;16.00;99.90
35457;DHT22;21575;51.538;-0.084;2022-10-16T11:38:03;15.80;99.90
35457;DHT22;21575;51.538;-0.084;2022-10-16T11:40:38;15.80;99.90
35457;DHT22;21575;51.538;-0.084;2022-10-16T11:43:29;15.80;99.90
35457;DHT22;21575;51.538;-0.084;2022-10-16T11:46:01;15.80;99.90
35457;DHT22;21575;51.538;-0.084;2022-10-16T11:48:51;15.90;99.90
35457;DHT22;21575;51.538;-0.084;2022-10-16T11:51:29;15.90;99.90
35457;DHT22;21575;51.538;-0.084;2022-10-16T11:56:57;15.90;99.90
35457;DHT22;21575;51.538;-0.084;2022-10-16T11:59:55;15.90;99.90
35457;DHT22;21575;51.538;-0.084;2022-10-16T12:05:19;16.00;99.90
35457;DHT22;21575;51.538;-0.084;2022-10-16T12:08:14;16.10;99.90
35457;DHT22;21575;51.538;-0.084;2022-10-16T12:10:45;16.20;99.90
35457;DHT22;21575;51.538;-0.084;2022-10-16T12:13:31;16.30;99.90
35457;DHT22;21575;51.538;-0.084;2022-10-16T12:18:44;16.40;99.90
35457;DHT22;21575;51.538;-0.084;2022-10-16T12:21:11;16.40;99.90
35457;DHT22;21575;51.538;-0.084;2022-10-16T12:23:53;16.50;99.90
35457;DHT22;21575;51.538;-0.084;2022-10-16T12:26:33;16.50;99.90
35457;DHT22;21575;51.538;-0.084;2022-10-16T12:32:36;16.70;99.90
35457;DHT22;21575;51.538;-0.084;2022-10-16T12:35:05;16.70;99.90
35457;DHT22;21575;51.538;-0.084;2022-10-16T12:37:34;16.70;99.90
35457;DHT22;21575;51.538;-0.084;2022-10-16T12:40:31;16.70;99.90
35457;DHT22;21575;51.538;-0.084;2022-10-16T12:42:58;16.70;99.90
35457;DHT22;21575;51.538;-0.084;2022-10-16T12:47:52;16.80;99.90
35457;DHT22;21575;51.538;-0.084;2022-10-16T12:50:37;17.00;99.90
35457;DHT22;21575;51.538;-0.084;2022-10-16T12:53:24;17.10;99.90
35457;DHT22;21575;51.538;-0.084;2022-10-16T13:01:57;17.40;99.90
35457;DHT22;21575;51.538;-0.084;2022-10-16T13:06:58;17.60;99.90
35457;DHT22;21575;51.538;-0.084;2022-10-16T13:10:22;17.60;99.90
35457;DHT22;21575;51.538;-0.084;2022-10-16T13:15:16;17.70;99.90
35457;DHT22;21575;51.538;-0.084;2022-10-16T13:19:04;17.70;99.90
35457;DHT22;21575;51.538;-0.084;2022-10-16T13:23:56;17.80;99.90
35457;DHT22;21575;51.538;-0.084;2022-10-16T13:28:53;17.90;99.90
35457;DHT22;21575;51.538;-0.084;2022-10-16T13:31:22;17.90;99.90
35457;DHT22;21575;51.538;-0.084;2022-10-16T13:33:55;17.90;99.90
35457;DHT22;21575;51.538;-0.084;2022-10-16T13:36:25;17.90;99.90
35457;DHT22;21575;51.538;-0.084;2022-10-16T13:41:35;17.90;99.90
35457;DHT22;21575;51.538;-0.084;2022-10-16T13:44:00;18.00;99.90
35457;DHT22;21575;51.538;-0.084;2022-10-16T13:46:26;18.00;99.90
35457;DHT22;21575;51.538;-0.084;2022-10-16T13:49:11;17.90;99.90
35457;DHT22;21575;51.538;-0.084;2022-10-16T13:51:37;18.00;99.90
35457;DHT22;21575;51.538;-0.084;2022-10-16T13:54:02;18.00;99.90
35457;DHT22;21575;51.538;-0.084;2022-10-16T13:56:30;18.00;99.90
35457;DHT22;21575;51.538;-0.084;2022-10-16T13:59:02;18.00;99.90
35457;DHT22;21575;51.538;-0.084;2022-10-16T14:01:31;18.10;99.90
35457;DHT22;21575;51.538;-0.084;2022-10-16T14:04:04;18.10;99.90
35457;DHT22;21575;51.538;-0.084;2022-10-16T14:06:31;18.00;99.90
35457;DHT22;21575;51.538;-0.084;2022-10-16T14:09:24;18.00;99.90
35457;DHT22;21575;51.538;-0.084;2022-10-16T14:11:52;18.00;99.90
35457;DHT22;21575;51.538;-0.084;2022-10-16T14:14:19;18.10;99.90
35457;DHT22;21575;51.538;-0.084;2022-10-16T14:16:45;18.10;99.90
35457;DHT22;21575;51.538;-0.084;2022-10-16T14:19:26;18.10;99.90
35457;DHT22;21575;51.538;-0.084;2022-10-16T14:21:53;18.00;99.90
35457;DHT22;21575;51.538;-0.084;2022-10-16T14:24:37;18.00;99.90
35457;DHT22;21575;51.538;-0.084;2022-10-16T14:27:33;17.90;99.90
35457;DHT22;21575;51.538;-0.084;2022-10-16T14:30:16;17.90;99.90
35457;DHT22;21575;51.538;-0.084;2022-10-16T14:32:56;17.90;99.90
35457;DHT22;21575;51.538;-0.084;2022-10-16T14:35:36;17.90;99.90
35457;DHT22;21575;51.538;-0.084;2022-10-16T14:38:04;17.90;99.90
35457;DHT22;21575;51.538;-0.084;2022-10-16T14:40:32;17.90;99.90
35457;DHT22;21575;51.538;-0.084;2022-10-16T14:42:59;17.90;99.90
35457;DHT22;21575;51.538;-0.084;2022-10-16T14:45:32;17.90;99.90
35457;DHT22;21575;51.538;-0.084;2022-10-16T14:48:03;17.80;99.90
35457;DHT22;21575;51.538;-0.084;2022-10-16T14:50:29;17.80;99.90
35457;DHT22;21575;51.538;-0.084;2022-10-16T14:52:55;17.70;99.90
35457;DHT22;21575;51.538;-0.084;2022-10-16T14:55:21;17.70;99.90
35457;DHT22;21575;51.538;-0.084;2022-10-16T14:57:47;17.60;99.90
35457;DHT22;21575;51.538;-0.084;2022-10-16T15:00:23;17.60;99.90
35457;DHT22;21575;51.538;-0.084;2022-10-16T15:02:49;17.60;99.90
35457;DHT22;21575;51.538;-0.084;2022-10-16T15:05:17;17.60;99.90
35457;DHT22;21575;51.538;-0.084;2022-10-16T15:07:43;17.50;99.90
35457;DHT22;21575;51.538;-0.084;2022-10-16T15:10:09;17.50;99.90
35457;DHT22;21575;51.538;-0.084;2022-10-16T15:12:36;17.50;99.90
35457;DHT22;21575;51.538;-0.084;2022-10-16T15:15:09;17.50;99.90
35457;DHT22;21575;51.538;-0.084;2022-10-16T15:17:40;17.40;99.90
35457;DHT22;21575;51.538;-0.084;2022-10-16T15:20:06;17.40;99.90
35457;DHT22;21575;51.538;-0.084;2022-10-16T15:22:32;17.30;99.90
35457;DHT22;21575;51.538;-0.084;2022-10-16T15:24:57;17.30;99.90
35457;DHT22;21575;51.538;-0.084;2022-10-16T15:27:23;17.30;99.90
35457;DHT22;21575;51.538;-0.084;2022-10-16T15:29:49;17.30;99.90
35457;DHT22;21575;51.538;-0.084;2022-10-16T15:32:14;17.30;99.90
35457;DHT22;21575;51.538;-0.084;2022-10-16T15:34:40;17.20;99.90
35457;DHT22;21575;51.538;-0.084;2022-10-16T15:37:05;17.20;99.90
35457;DHT22;21575;51.538;-0.084;2022-10-16T15:39:31;17.10;99.90
35457;DHT22;21575;51.538;-0.084;2022-10-16T15:41:57;17.10;99.90
35457;DHT22;21575;51.538;-0.084;2022-10-16T15:44:22;17.00;99.90
35457;DHT22;21575;51.538;-0.084;2022-10-16T15:46:50;17.00;99.90
35457;DHT22;21575;51.538;-0.084;2022-10-16T15:49:19;17.00;99.90
35457;DHT22;21575;51.538;-0.084;2022-10-16T15:51:45;17.00;99.90
35457;DHT22;21575;51.538;-0.084;2022-10-16T15:54:11;16.90;99.90
35457;DHT22;21575;51.538;-0.084;2022-10-16T15:56:37;16.90;99.90
35457;DHT22;21575;51.538;-0.084;2022-10-16T15:59:03;16.90;99.90
35457;DHT22;21575;51.538;-0.084;2022-10-16T16:01:34;16.80;99.90
35457;DHT22;21575;51.538;-0.084;2022-10-16T16:04:00;16.80;99.90
35457;DHT22;21575;51.538;-0.084;2022-10-16T16:06:26;16.70;99.90
35457;DHT22;21575;51.538;-0.084;2022-10-16T16:08:52;16.70;99.90
35457;DHT22;21575;51.538;-0.084;2022-10-16T16:11:19;16.70;99.90
35457;DHT22;21575;51.538;-0.084;2022-10-16T16:13:44;16.60;99.90
35457;DHT22;21575;51.538;-0.084;2022-10-16T16:16:12;16.60;99.90
35457;DHT22;21575;51.538;-0.084;2022-10-16T16:18:39;16.60;99.90
35457;DHT22;21575;51.538;-0.084;2022-10-16T16:21:05;16.50;99.90
35457;DHT22;21575;51.538;-0.084;2022-10-16T16:23:31;16.50;99.90
35457;DHT22;21575;51.538;-0.084;2022-10-16T16:26:10;16.40;99.90
35457;DHT22;21575;51.538;-0.084;2022-10-16T16:28:36;16.40;99.90
35457;DHT22;21575;51.538;-0.084;2022-10-16T16:31:02;16.40;99.90
35457;DHT22;21575;51.538;-0.084;2022-10-16T16:33:28;16.30;99.90
35457;DHT22;21575;51.538;-0.084;2022-10-16T16:35:58;16.30;99.90
35457;DHT22;21575;51.538;-0.084;2022-10-16T16:38:24;16.30;99.90
35457;DHT22;21575;51.538;-0.084;2022-10-16T16:40:49;16.30;99.90
35457;DHT22;21575;51.538;-0.084;2022-10-16T16:43:16;16.20;99.90
35457;DHT22;21575;51.538;-0.084;2022-10-16T16:45:42;16.20;99.90
35457;DHT22;21575;51.538;-0.084;2022-10-16T16:48:07;16.20;99.90
35457;DHT22;21575;51.538;-0.084;2022-10-16T16:50:36;16.20;99.90
35457;DHT22;21575;51.538;-0.084;2022-10-16T16:53:02;16.20;99.90
35457;DHT22;21575;51.538;-0.084;2022-10-16T16:55:28;16.10;99.90
35457;DHT22;21575;51.538;-0.084;2022-10-16T16:57:54;16.00;99.90
35457;DHT22;21575;51.538;-0.084;2022-10-16T17:00:22;16.00;99.90